This is the latest recevied weather packets stored in our database for station/object DM5KA-13. If no packets are shown the sender has not sent any weather packets the latest 1 day(s).
| Time | Temp. | Humidity | Pressure | Rain* | Wind** | Luminosity | Snow |
|---|---|---|---|---|---|---|---|
| 1778013902 | 13.89° C | 98% | 1007.8 hPa | 11.18 mm | 0.89 m/s, 0° | - | - |
| 1778013602 | 13.89° C | 98% | 1007.8 hPa | 7.62 mm | 0.45 m/s, 0° | - | - |
| 1778013326 | 13.89° C | 97% | 1007.6 hPa | 5.59 mm | 0 m/s | - | - |
| 1778013025 | 13.89° C | 96% | 1007.4 hPa | 4.06 mm | 0 m/s | - | - |
| 1778012725 | 15° C | 94% | 1007.3 hPa | 2.79 mm | 0.45 m/s, 0° | - | - |
| 1778012424 | 15° C | 92% | 1007.4 hPa | 2.03 mm | 0.45 m/s, 0° | - | - |
| 1778012124 | 15° C | 92% | 1007.4 hPa | 2.03 mm | 0.45 m/s, 0° | - | - |
| 1778011825 | 15° C | 91% | 1007.5 hPa | 1.78 mm | 0.45 m/s, 0° | - | - |
| 1778011525 | 15° C | 91% | 1007.5 hPa | 1.78 mm | 0 m/s | - | - |
| 1778011225 | 15° C | 88% | 1007.4 hPa | 1.02 mm | 0 m/s | - | - |
| 1778010925 | 16.11° C | 88% | 1007.5 hPa | 0.51 mm | 0 m/s | - | - |
| 1778010625 | 16.11° C | 84% | 1007.4 hPa | 0 mm | 0 m/s | - | - |
| 1778010324 | 16.11° C | 82% | 1007.4 hPa | 0 mm | 0 m/s | - | - |
| 1778010024 | 16.11° C | 81% | 1007.4 hPa | 0 mm | 0 m/s | - | - |
| 1778009725 | 16.11° C | 81% | 1007.3 hPa | 0 mm | 0.45 m/s, 0° | - | - |
| 1778009425 | 16.11° C | 80% | 1007.2 hPa | 0 mm | 0 m/s | - | - |
| 1778009137 | 16.11° C | 80% | 1007.1 hPa | 0 mm | 0.45 m/s, 0° | - | - |
| 1778008813 | 16.11° C | 80% | 1007.1 hPa | 0 mm | 0.45 m/s, 0° | - | - |
| 1778008512 | 16.11° C | 79% | 1007.1 hPa | 0 mm | 0 m/s | - | - |
| 1778008212 | 16.11° C | 79% | 1007.1 hPa | 0 mm | 0.45 m/s, 0° | - | - |
| 1778007913 | 17.22° C | 77% | 1007.3 hPa | 0 mm | 0.45 m/s, 0° | - | - |
| 1778007613 | 17.78° C | 70% | 1007.4 hPa | 0 mm | 0.45 m/s, 0° | - | - |
| 1778007313 | 17.78° C | 72% | 1007.4 hPa | 0 mm | 0.45 m/s, 0° | - | - |
| 1778007013 | 17.22° C | 72% | 1007.5 hPa | 0 mm | 0.45 m/s, 0° | - | - |
| 1778006713 | 17.78° C | 74% | 1007.6 hPa | 0 mm | 0.45 m/s, 0° | - | - |
* Rain latest hour (hover to see other rain measurements)
** Current wind speed in m/s (hover to see current wind gust speed)